Terminal Aerodrome Forecast
Issued by NWS Tallahassee, FL

Home | Current Version | Previous Version | Text Only | Print | Product List | Glossary On
Versions: 1 2 3 4 5 6 7 8 9 10 11 12 13 14 15 16 17 18
000
FTUS42 KTAE 302300
TAFTLH
TAF
KTLH 302334Z 0100/0124 02004KT P6SM OVC035
     FM010800 07003KT 4SM BR BKN012
     FM011300 10006KT P6SM BKN022
     FM011600 05004KT P6SM SCT035=

USA.gov is the U.S. government's official web portal to all federal, state and local government web resources and services.